If you wish to contribute or participate in the discussions about articles you are invited to join SKYbrary as a registered user

 Actions

Deelen Air Base

From SKYbrary Wiki

EHDL
Airport
ICAO: EHDL – IATA: QAR
Summary
Name Deelen Air Base
Region Europe
Territory Netherlands NL.gif
Location Deelen, Gelderland
Serving Deelen
Elevation 48.158 m
158 ft
158 ft48.158 m
Type medium airport
Coordinates 52° 3' 38.00" N, 5° 52' 23.00" E
Runways
Designator Length Width Surface ROPS
2/20 2950 m9,678.478 ft
50 m164.042 ft
PEM /


METAR
Observation EHDL 151455Z AUTO 26007KT 160V310 9999 BKN034 BKN390 22/14 Q1021 BLU
Station Deelen
Date/Time 15 September 2019 14:55:00
Wind direction 260°
Wind speed 07 kts
Lowest cloud amount broken clouds
Temperature 22°C
Dew point 14°C
Humidity 60%
QNH 1021 hPa
Weather condition n/a

Deelen Air Base is a military air base in the Netherlands in the province of Gelderland. Though once an active air base, it is now mostly used as a helicopter training site.

Climatology

Temperate Marine climate/Oceanic climate (Köppen climate classification Cfb). Moderately cool summer and comparatively warm winter with a temperature range of only 14°C57.2 °F
287.15 K
516.87 °R
. Prevailing south-westerly winds from the Atlantic Ocean.

Maps

Terrain

Loading map...

Airport Layout

Loading map...


Accidents & Serious Incidents at or in vicinity of EHDL

None on SKYbrary